sensor_id;sensor_type;location;lat;lon;timestamp;temperature;humidity
1347;DHT22;667;48.796;9.480;2023-04-03T00:01:20;8.40;62.90
1347;DHT22;667;48.796;9.480;2023-04-03T00:03:46;8.40;63.10
1347;DHT22;667;48.796;9.480;2023-04-03T00:06:12;8.40;63.40
1347;DHT22;667;48.796;9.480;2023-04-03T00:08:38;8.40;63.70
1347;DHT22;667;48.796;9.480;2023-04-03T00:11:05;8.40;63.80
1347;DHT22;667;48.796;9.480;2023-04-03T00:13:32;8.40;64.10
1347;DHT22;667;48.796;9.480;2023-04-03T00:15:57;8.30;64.20
1347;DHT22;667;48.796;9.480;2023-04-03T00:18:23;8.30;64.00
1347;DHT22;667;48.796;9.480;2023-04-03T00:20:49;8.20;64.00
1347;DHT22;667;48.796;9.480;2023-04-03T00:23:15;8.20;64.30
1347;DHT22;667;48.796;9.480;2023-04-03T00:25:41;8.10;64.50
1347;DHT22;667;48.796;9.480;2023-04-03T00:28:06;8.10;65.00
1347;DHT22;667;48.796;9.480;2023-04-03T00:30:32;8.10;65.10
1347;DHT22;667;48.796;9.480;2023-04-03T00:32:58;8.10;65.20
1347;DHT22;667;48.796;9.480;2023-04-03T00:35:24;8.00;65.40
1347;DHT22;667;48.796;9.480;2023-04-03T00:37:54;8.00;65.60
1347;DHT22;667;48.796;9.480;2023-04-03T00:40:22;7.90;65.60
1347;DHT22;667;48.796;9.480;2023-04-03T00:42:49;7.90;65.80
1347;DHT22;667;48.796;9.480;2023-04-03T00:45:32;7.90;66.00
1347;DHT22;667;48.796;9.480;2023-04-03T00:48:00;7.80;66.00
1347;DHT22;667;48.796;9.480;2023-04-03T00:50:28;7.80;66.10
1347;DHT22;667;48.796;9.480;2023-04-03T00:52:55;7.80;66.20
1347;DHT22;667;48.796;9.480;2023-04-03T00:55:22;7.70;66.50
1347;DHT22;667;48.796;9.480;2023-04-03T00:57:48;7.70;66.50
1347;DHT22;667;48.796;9.480;2023-04-03T01:00:18;7.70;66.80
1347;DHT22;667;48.796;9.480;2023-04-03T01:02:44;7.70;66.80
1347;DHT22;667;48.796;9.480;2023-04-03T01:05:11;7.60;66.90
1347;DHT22;667;48.796;9.480;2023-04-03T01:07:37;7.60;67.10
1347;DHT22;667;48.796;9.480;2023-04-03T01:10:10;7.60;67.00
1347;DHT22;667;48.796;9.480;2023-04-03T01:12:40;7.60;67.20
1347;DHT22;667;48.796;9.480;2023-04-03T01:15:22;7.50;67.20
1347;DHT22;667;48.796;9.480;2023-04-03T01:17:55;7.50;67.60
1347;DHT22;667;48.796;9.480;2023-04-03T01:25:44;7.50;67.80
1347;DHT22;667;48.796;9.480;2023-04-03T01:28:15;7.40;67.80
1347;DHT22;667;48.796;9.480;2023-04-03T01:33:44;7.40;68.00
1347;DHT22;667;48.796;9.480;2023-04-03T01:36:16;7.30;67.70
1347;DHT22;667;48.796;9.480;2023-04-03T01:38:42;7.40;68.00
1347;DHT22;667;48.796;9.480;2023-04-03T01:41:08;7.40;68.10
1347;DHT22;667;48.796;9.480;2023-04-03T01:43:33;7.40;67.80
1347;DHT22;667;48.796;9.480;2023-04-03T01:45:59;7.40;67.70
1347;DHT22;667;48.796;9.480;2023-04-03T01:48:24;7.40;67.70
1347;DHT22;667;48.796;9.480;2023-04-03T01:50:50;7.40;67.60
1347;DHT22;667;48.796;9.480;2023-04-03T01:53:16;7.40;67.60
1347;DHT22;667;48.796;9.480;2023-04-03T01:55:41;7.30;67.50
1347;DHT22;667;48.796;9.480;2023-04-03T01:58:07;7.40;67.60
1347;DHT22;667;48.796;9.480;2023-04-03T02:00:32;7.30;67.30
1347;DHT22;667;48.796;9.480;2023-04-03T02:02:58;7.30;67.40
1347;DHT22;667;48.796;9.480;2023-04-03T02:05:23;7.30;67.50
1347;DHT22;667;48.796;9.480;2023-04-03T02:07:49;7.30;68.20
1347;DHT22;667;48.796;9.480;2023-04-03T02:10:15;7.30;67.60
1347;DHT22;667;48.796;9.480;2023-04-03T02:12:40;7.30;67.90
1347;DHT22;667;48.796;9.480;2023-04-03T02:15:06;7.30;68.00
1347;DHT22;667;48.796;9.480;2023-04-03T02:17:32;7.30;68.20
1347;DHT22;667;48.796;9.480;2023-04-03T02:19:58;7.20;68.10
1347;DHT22;667;48.796;9.480;2023-04-03T02:22:23;7.20;68.40
1347;DHT22;667;48.796;9.480;2023-04-03T02:24:49;7.20;68.70
1347;DHT22;667;48.796;9.480;2023-04-03T02:27:15;7.20;68.80
1347;DHT22;667;48.796;9.480;2023-04-03T02:29:41;7.20;68.60
1347;DHT22;667;48.796;9.480;2023-04-03T02:32:06;7.20;68.50
1347;DHT22;667;48.796;9.480;2023-04-03T02:34:32;7.20;68.60
1347;DHT22;667;48.796;9.480;2023-04-03T02:36:57;7.20;68.90
1347;DHT22;667;48.796;9.480;2023-04-03T02:39:23;7.30;69.30
1347;DHT22;667;48.796;9.480;2023-04-03T02:41:49;7.30;69.20
1347;DHT22;667;48.796;9.480;2023-04-03T02:44:14;7.30;69.00
1347;DHT22;667;48.796;9.480;2023-04-03T02:46:40;7.30;68.90
1347;DHT22;667;48.796;9.480;2023-04-03T02:49:06;7.30;68.60
1347;DHT22;667;48.796;9.480;2023-04-03T02:51:32;7.40;68.80
1347;DHT22;667;48.796;9.480;2023-04-03T02:53:57;7.40;68.90
1347;DHT22;667;48.796;9.480;2023-04-03T02:56:23;7.40;69.00
1347;DHT22;667;48.796;9.480;2023-04-03T02:58:48;7.40;68.90
1347;DHT22;667;48.796;9.480;2023-04-03T03:01:14;7.50;68.90
1347;DHT22;667;48.796;9.480;2023-04-03T03:03:40;7.50;68.90
1347;DHT22;667;48.796;9.480;2023-04-03T03:06:11;7.50;68.60
1347;DHT22;667;48.796;9.480;2023-04-03T03:08:37;7.50;68.90
1347;DHT22;667;48.796;9.480;2023-04-03T03:11:03;7.60;69.20
1347;DHT22;667;48.796;9.480;2023-04-03T03:13:29;7.60;69.20
1347;DHT22;667;48.796;9.480;2023-04-03T03:15:55;7.60;69.40
1347;DHT22;667;48.796;9.480;2023-04-03T03:18:21;7.60;69.30
1347;DHT22;667;48.796;9.480;2023-04-03T03:20:51;7.60;69.40
1347;DHT22;667;48.796;9.480;2023-04-03T03:23:17;7.70;69.40
1347;DHT22;667;48.796;9.480;2023-04-03T03:25:42;7.70;69.00
1347;DHT22;667;48.796;9.480;2023-04-03T03:28:08;7.70;68.60
1347;DHT22;667;48.796;9.480;2023-04-03T03:30:33;7.80;68.80
1347;DHT22;667;48.796;9.480;2023-04-03T03:32:59;7.80;68.50
1347;DHT22;667;48.796;9.480;2023-04-03T03:35:25;7.80;68.60
1347;DHT22;667;48.796;9.480;2023-04-03T03:37:51;7.80;68.40
1347;DHT22;667;48.796;9.480;2023-04-03T03:40:16;7.80;68.50
1347;DHT22;667;48.796;9.480;2023-04-03T03:42:42;7.80;68.50
1347;DHT22;667;48.796;9.480;2023-04-03T03:45:08;7.90;68.50
1347;DHT22;667;48.796;9.480;2023-04-03T03:47:34;7.90;67.90
1347;DHT22;667;48.796;9.480;2023-04-03T03:50:00;7.80;67.70
1347;DHT22;667;48.796;9.480;2023-04-03T03:52:25;7.80;67.80
1347;DHT22;667;48.796;9.480;2023-04-03T03:54:51;7.80;67.90
1347;DHT22;667;48.796;9.480;2023-04-03T03:57:17;7.80;68.00
1347;DHT22;667;48.796;9.480;2023-04-03T03:59:42;7.80;68.10
1347;DHT22;667;48.796;9.480;2023-04-03T04:02:10;7.80;68.00
1347;DHT22;667;48.796;9.480;2023-04-03T04:04:36;7.80;67.80
1347;DHT22;667;48.796;9.480;2023-04-03T04:07:02;7.90;68.00
1347;DHT22;667;48.796;9.480;2023-04-03T04:09:28;7.90;68.00
1347;DHT22;667;48.796;9.480;2023-04-03T04:11:53;7.80;67.40
1347;DHT22;667;48.796;9.480;2023-04-03T04:14:19;7.80;67.20
1347;DHT22;667;48.796;9.480;2023-04-03T04:16:48;7.80;67.20
1347;DHT22;667;48.796;9.480;2023-04-03T04:19:14;7.80;67.40
1347;DHT22;667;48.796;9.480;2023-04-03T04:21:40;7.80;67.30
1347;DHT22;667;48.796;9.480;2023-04-03T04:24:07;7.80;67.30
1347;DHT22;667;48.796;9.480;2023-04-03T04:26:33;7.80;67.40
1347;DHT22;667;48.796;9.480;2023-04-03T04:28:58;7.80;67.40
1347;DHT22;667;48.796;9.480;2023-04-03T04:31:24;7.80;67.50
1347;DHT22;667;48.796;9.480;2023-04-03T04:33:49;7.80;67.60
1347;DHT22;667;48.796;9.480;2023-04-03T04:36:15;7.80;67.70
1347;DHT22;667;48.796;9.480;2023-04-03T04:38:41;7.80;67.70
1347;DHT22;667;48.796;9.480;2023-04-03T04:41:07;7.80;67.80
1347;DHT22;667;48.796;9.480;2023-04-03T04:43:33;7.80;67.90
1347;DHT22;667;48.796;9.480;2023-04-03T04:46:07;7.80;68.20
1347;DHT22;667;48.796;9.480;2023-04-03T04:48:34;7.80;68.10
1347;DHT22;667;48.796;9.480;2023-04-03T04:51:00;7.80;68.20
1347;DHT22;667;48.796;9.480;2023-04-03T04:53:25;7.80;68.40
1347;DHT22;667;48.796;9.480;2023-04-03T04:55:51;7.80;68.50
1347;DHT22;667;48.796;9.480;2023-04-03T04:58:17;7.80;68.30
1347;DHT22;667;48.796;9.480;2023-04-03T05:00:43;7.80;68.40
1347;DHT22;667;48.796;9.480;2023-04-03T05:03:09;7.80;68.30
1347;DHT22;667;48.796;9.480;2023-04-03T05:05:34;7.80;68.20
1347;DHT22;667;48.796;9.480;2023-04-03T05:08:01;7.80;68.40
1347;DHT22;667;48.796;9.480;2023-04-03T05:10:26;7.80;68.40
1347;DHT22;667;48.796;9.480;2023-04-03T05:12:52;7.80;68.40
1347;DHT22;667;48.796;9.480;2023-04-03T05:15:17;7.80;69.00
1347;DHT22;667;48.796;9.480;2023-04-03T05:17:43;7.80;68.40
1347;DHT22;667;48.796;9.480;2023-04-03T05:20:09;7.80;68.30
1347;DHT22;667;48.796;9.480;2023-04-03T05:22:34;7.80;68.00
1347;DHT22;667;48.796;9.480;2023-04-03T05:25:00;7.70;67.90
1347;DHT22;667;48.796;9.480;2023-04-03T05:27:25;7.70;67.80
1347;DHT22;667;48.796;9.480;2023-04-03T05:29:53;7.70;67.30
1347;DHT22;667;48.796;9.480;2023-04-03T05:32:19;7.70;66.80
1347;DHT22;667;48.796;9.480;2023-04-03T05:34:45;7.70;66.60
1347;DHT22;667;48.796;9.480;2023-04-03T05:37:11;7.70;66.90
1347;DHT22;667;48.796;9.480;2023-04-03T05:39:36;7.70;66.90
1347;DHT22;667;48.796;9.480;2023-04-03T05:42:03;7.60;65.70
1347;DHT22;667;48.796;9.480;2023-04-03T05:44:29;7.60;65.00
1347;DHT22;667;48.796;9.480;2023-04-03T05:46:54;7.70;64.60
1347;DHT22;667;48.796;9.480;2023-04-03T05:49:20;7.70;64.20
1347;DHT22;667;48.796;9.480;2023-04-03T05:51:46;7.70;63.30
1347;DHT22;667;48.796;9.480;2023-04-03T05:54:29;7.70;62.30
1347;DHT22;667;48.796;9.480;2023-04-03T05:56:55;7.70;61.50
1347;DHT22;667;48.796;9.480;2023-04-03T05:59:23;7.70;60.90
1347;DHT22;667;48.796;9.480;2023-04-03T06:01:48;7.70;60.20
1347;DHT22;667;48.796;9.480;2023-04-03T06:04:14;7.70;60.00
1347;DHT22;667;48.796;9.480;2023-04-03T06:06:51;7.70;59.80
1347;DHT22;667;48.796;9.480;2023-04-03T06:09:17;7.70;59.40
1347;DHT22;667;48.796;9.480;2023-04-03T06:11:43;7.70;59.60
1347;DHT22;667;48.796;9.480;2023-04-03T06:14:09;7.70;60.00
1347;DHT22;667;48.796;9.480;2023-04-03T06:16:35;7.70;59.90
1347;DHT22;667;48.796;9.480;2023-04-03T06:19:01;7.80;60.20
1347;DHT22;667;48.796;9.480;2023-04-03T06:21:26;7.80;60.80
1347;DHT22;667;48.796;9.480;2023-04-03T06:23:52;7.80;61.10
1347;DHT22;667;48.796;9.480;2023-04-03T06:26:18;7.80;60.40
1347;DHT22;667;48.796;9.480;2023-04-03T06:28:43;7.90;60.20
1347;DHT22;667;48.796;9.480;2023-04-03T06:31:09;7.90;59.90
1347;DHT22;667;48.796;9.480;2023-04-03T06:33:34;7.90;60.10
1347;DHT22;667;48.796;9.480;2023-04-03T06:36:03;7.90;59.70
1347;DHT22;667;48.796;9.480;2023-04-03T06:38:30;7.90;59.70
1347;DHT22;667;48.796;9.480;2023-04-03T06:40:55;7.90;59.70
1347;DHT22;667;48.796;9.480;2023-04-03T06:43:22;8.00;59.80
1347;DHT22;667;48.796;9.480;2023-04-03T06:45:48;8.00;59.80
1347;DHT22;667;48.796;9.480;2023-04-03T06:48:13;8.00;60.00
1347;DHT22;667;48.796;9.480;2023-04-03T06:50:39;8.00;60.00
1347;DHT22;667;48.796;9.480;2023-04-03T06:53:05;8.00;59.60
1347;DHT22;667;48.796;9.480;2023-04-03T06:55:32;8.00;59.40
1347;DHT22;667;48.796;9.480;2023-04-03T06:57:58;8.10;59.50
1347;DHT22;667;48.796;9.480;2023-04-03T07:00:23;8.00;59.50
1347;DHT22;667;48.796;9.480;2023-04-03T07:02:50;8.10;59.40
1347;DHT22;667;48.796;9.480;2023-04-03T07:05:15;8.00;59.30
1347;DHT22;667;48.796;9.480;2023-04-03T07:07:41;8.10;59.50
1347;DHT22;667;48.796;9.480;2023-04-03T07:10:08;8.00;59.20
1347;DHT22;667;48.796;9.480;2023-04-03T07:12:33;8.00;59.30
1347;DHT22;667;48.796;9.480;2023-04-03T07:14:59;8.00;60.00
1347;DHT22;667;48.796;9.480;2023-04-03T07:17:25;8.10;59.20
1347;DHT22;667;48.796;9.480;2023-04-03T07:19:51;8.10;59.00
1347;DHT22;667;48.796;9.480;2023-04-03T07:22:16;8.00;59.20
1347;DHT22;667;48.796;9.480;2023-04-03T07:24:42;8.00;59.20
1347;DHT22;667;48.796;9.480;2023-04-03T07:27:08;8.00;59.50
1347;DHT22;667;48.796;9.480;2023-04-03T07:29:34;8.00;59.50
1347;DHT22;667;48.796;9.480;2023-04-03T07:32:01;8.00;59.60
1347;DHT22;667;48.796;9.480;2023-04-03T07:34:27;8.00;59.40
1347;DHT22;667;48.796;9.480;2023-04-03T07:36:52;8.00;59.70
1347;DHT22;667;48.796;9.480;2023-04-03T07:39:18;8.10;59.90
1347;DHT22;667;48.796;9.480;2023-04-03T07:41:44;8.10;59.60
1347;DHT22;667;48.796;9.480;2023-04-03T07:44:09;8.10;59.70
1347;DHT22;667;48.796;9.480;2023-04-03T07:46:36;8.20;59.90
1347;DHT22;667;48.796;9.480;2023-04-03T07:49:02;8.30;60.00
1347;DHT22;667;48.796;9.480;2023-04-03T07:54:02;8.30;59.00
1347;DHT22;667;48.796;9.480;2023-04-03T07:56:28;8.30;58.90
1347;DHT22;667;48.796;9.480;2023-04-03T07:58:53;8.30;59.10
1347;DHT22;667;48.796;9.480;2023-04-03T08:01:19;8.40;59.10
1347;DHT22;667;48.796;9.480;2023-04-03T08:03:45;8.40;59.10
1347;DHT22;667;48.796;9.480;2023-04-03T08:06:10;8.40;59.30
1347;DHT22;667;48.796;9.480;2023-04-03T08:08:36;8.40;59.40
1347;DHT22;667;48.796;9.480;2023-04-03T08:11:02;8.40;59.40
1347;DHT22;667;48.796;9.480;2023-04-03T08:13:30;8.40;59.60
1347;DHT22;667;48.796;9.480;2023-04-03T08:15:56;8.50;59.70
1347;DHT22;667;48.796;9.480;2023-04-03T08:18:23;8.60;59.30
1347;DHT22;667;48.796;9.480;2023-04-03T08:20:50;8.70;58.80
1347;DHT22;667;48.796;9.480;2023-04-03T08:23:17;8.70;58.80
1347;DHT22;667;48.796;9.480;2023-04-03T08:25:43;8.70;59.00
1347;DHT22;667;48.796;9.480;2023-04-03T08:28:10;8.80;58.70
1347;DHT22;667;48.796;9.480;2023-04-03T08:30:38;8.90;58.50
1347;DHT22;667;48.796;9.480;2023-04-03T08:33:04;8.90;58.40
1347;DHT22;667;48.796;9.480;2023-04-03T08:35:30;8.90;58.50
1347;DHT22;667;48.796;9.480;2023-04-03T08:37:55;8.90;58.40
1347;DHT22;667;48.796;9.480;2023-04-03T08:40:22;8.90;58.00
1347;DHT22;667;48.796;9.480;2023-04-03T08:45:42;8.90;57.20
1347;DHT22;667;48.796;9.480;2023-04-03T08:48:20;9.00;57.20
1347;DHT22;667;48.796;9.480;2023-04-03T08:50:50;9.00;57.00
1347;DHT22;667;48.796;9.480;2023-04-03T08:53:26;9.00;56.80
1347;DHT22;667;48.796;9.480;2023-04-03T08:55:54;8.90;56.90
1347;DHT22;667;48.796;9.480;2023-04-03T08:58:28;8.90;56.90
1347;DHT22;667;48.796;9.480;2023-04-03T09:01:04;9.00;56.80
1347;DHT22;667;48.796;9.480;2023-04-03T09:03:38;9.00;56.90
1347;DHT22;667;48.796;9.480;2023-04-03T09:06:13;9.10;57.10
1347;DHT22;667;48.796;9.480;2023-04-03T09:11:36;9.20;56.40
1347;DHT22;667;48.796;9.480;2023-04-03T09:14:26;9.30;55.80
1347;DHT22;667;48.796;9.480;2023-04-03T09:16:59;9.30;55.90
1347;DHT22;667;48.796;9.480;2023-04-03T09:21:58;9.30;55.80
1347;DHT22;667;48.796;9.480;2023-04-03T09:24:25;9.30;56.20
1347;DHT22;667;48.796;9.480;2023-04-03T09:26:58;9.40;56.40
1347;DHT22;667;48.796;9.480;2023-04-03T09:29:26;9.40;56.00
1347;DHT22;667;48.796;9.480;2023-04-03T09:32:02;9.40;55.70
1347;DHT22;667;48.796;9.480;2023-04-03T09:34:31;9.50;55.80
1347;DHT22;667;48.796;9.480;2023-04-03T09:37:00;9.40;55.60
1347;DHT22;667;48.796;9.480;2023-04-03T09:39:32;9.50;55.20
1347;DHT22;667;48.796;9.480;2023-04-03T09:42:24;9.50;55.70
1347;DHT22;667;48.796;9.480;2023-04-03T09:45:21;9.50;55.10
1347;DHT22;667;48.796;9.480;2023-04-03T09:47:48;9.50;54.60
1347;DHT22;667;48.796;9.480;2023-04-03T09:52:48;9.50;54.90
1347;DHT22;667;48.796;9.480;2023-04-03T09:57:39;9.50;54.80
1347;DHT22;667;48.796;9.480;2023-04-03T10:00:10;9.40;54.60
1347;DHT22;667;48.796;9.480;2023-04-03T10:02:44;9.40;54.60
1347;DHT22;667;48.796;9.480;2023-04-03T10:05:28;9.40;54.70
1347;DHT22;667;48.796;9.480;2023-04-03T10:10:36;9.40;54.40
1347;DHT22;667;48.796;9.480;2023-04-03T10:15:46;9.40;54.00
1347;DHT22;667;48.796;9.480;2023-04-03T10:18:41;9.40;54.50
1347;DHT22;667;48.796;9.480;2023-04-03T10:24:18;9.40;55.00
1347;DHT22;667;48.796;9.480;2023-04-03T10:27:00;9.50;54.40
1347;DHT22;667;48.796;9.480;2023-04-03T10:29:42;9.50;54.10
1347;DHT22;667;48.796;9.480;2023-04-03T10:35:00;9.50;53.50
1347;DHT22;667;48.796;9.480;2023-04-03T10:37:32;9.60;53.50
1347;DHT22;667;48.796;9.480;2023-04-03T10:45:30;9.70;51.40
1347;DHT22;667;48.796;9.480;2023-04-03T10:48:02;9.70;50.70
1347;DHT22;667;48.796;9.480;2023-04-03T10:50:47;9.60;50.40
1347;DHT22;667;48.796;9.480;2023-04-03T10:53:39;9.60;50.70
1347;DHT22;667;48.796;9.480;2023-04-03T10:58:54;9.60;49.50
1347;DHT22;667;48.796;9.480;2023-04-03T11:01:26;9.60;49.30
1347;DHT22;667;48.796;9.480;2023-04-03T11:03:58;9.70;48.40
1347;DHT22;667;48.796;9.480;2023-04-03T11:06:28;9.60;48.10
1347;DHT22;667;48.796;9.480;2023-04-03T11:09:03;9.70;48.70
1347;DHT22;667;48.796;9.480;2023-04-03T11:11:37;9.70;49.10
1347;DHT22;667;48.796;9.480;2023-04-03T11:14:30;9.70;49.20
1347;DHT22;667;48.796;9.480;2023-04-03T11:17:15;9.80;49.20
1347;DHT22;667;48.796;9.480;2023-04-03T11:22:27;9.80;49.40
1347;DHT22;667;48.796;9.480;2023-04-03T11:25:06;9.80;49.20
1347;DHT22;667;48.796;9.480;2023-04-03T11:27:51;9.80;49.00
1347;DHT22;667;48.796;9.480;2023-04-03T11:30:20;9.80;48.20
1347;DHT22;667;48.796;9.480;2023-04-03T11:35:30;9.80;47.80
1347;DHT22;667;48.796;9.480;2023-04-03T11:37:58;9.80;47.90
1347;DHT22;667;48.796;9.480;2023-04-03T11:40:31;9.80;48.00
1347;DHT22;667;48.796;9.480;2023-04-03T11:46:10;9.80;49.50
1347;DHT22;667;48.796;9.480;2023-04-03T11:48:43;9.90;48.40
1347;DHT22;667;48.796;9.480;2023-04-03T11:53:39;9.90;47.00
1347;DHT22;667;48.796;9.480;2023-04-03T11:58:35;9.80;47.20
1347;DHT22;667;48.796;9.480;2023-04-03T12:01:11;9.80;48.00
1347;DHT22;667;48.796;9.480;2023-04-03T12:26:50;10.40;46.90
1347;DHT22;667;48.796;9.480;2023-04-03T12:40:25;10.60;46.00
1347;DHT22;667;48.796;9.480;2023-04-03T12:45:46;10.60;46.80
1347;DHT22;667;48.796;9.480;2023-04-03T12:48:18;10.60;46.80
1347;DHT22;667;48.796;9.480;2023-04-03T12:50:49;10.60;46.80
1347;DHT22;667;48.796;9.480;2023-04-03T12:53:16;10.60;46.80
1347;DHT22;667;48.796;9.480;2023-04-03T12:55:43;10.60;45.70
1347;DHT22;667;48.796;9.480;2023-04-03T12:58:27;10.60;45.80
1347;DHT22;667;48.796;9.480;2023-04-03T13:01:04;10.70;46.40
1347;DHT22;667;48.796;9.480;2023-04-03T13:03:40;10.70;46.90
1347;DHT22;667;48.796;9.480;2023-04-03T13:06:21;10.70;46.70
1347;DHT22;667;48.796;9.480;2023-04-03T13:08:58;10.70;46.60
1347;DHT22;667;48.796;9.480;2023-04-03T13:11:29;10.70;45.20
1347;DHT22;667;48.796;9.480;2023-04-03T13:14:15;10.70;45.20
1347;DHT22;667;48.796;9.480;2023-04-03T13:16:41;10.70;44.70
1347;DHT22;667;48.796;9.480;2023-04-03T13:19:16;10.70;44.60
1347;DHT22;667;48.796;9.480;2023-04-03T13:21:42;10.70;44.50
1347;DHT22;667;48.796;9.480;2023-04-03T13:24:09;10.70;43.80
1347;DHT22;667;48.796;9.480;2023-04-03T13:26:36;10.70;43.70
1347;DHT22;667;48.796;9.480;2023-04-03T13:29:07;10.70;43.60
1347;DHT22;667;48.796;9.480;2023-04-03T13:31:43;10.70;43.30
1347;DHT22;667;48.796;9.480;2023-04-03T13:37:19;10.60;44.40
1347;DHT22;667;48.796;9.480;2023-04-03T13:39:32;10.50;44.30
1347;DHT22;667;48.796;9.480;2023-04-03T13:42:01;10.40;44.80
1347;DHT22;667;48.796;9.480;2023-04-03T13:44:36;10.50;45.70
1347;DHT22;667;48.796;9.480;2023-04-03T13:49:40;10.60;45.40
1347;DHT22;667;48.796;9.480;2023-04-03T13:54:37;10.60;45.10
1347;DHT22;667;48.796;9.480;2023-04-03T13:57:10;10.70;44.80
1347;DHT22;667;48.796;9.480;2023-04-03T13:59:37;10.80;44.70
1347;DHT22;667;48.796;9.480;2023-04-03T14:04:55;11.00;44.50
1347;DHT22;667;48.796;9.480;2023-04-03T14:07:22;11.00;44.20
1347;DHT22;667;48.796;9.480;2023-04-03T14:09:48;11.00;43.70
1347;DHT22;667;48.796;9.480;2023-04-03T14:12:33;11.00;43.50
1347;DHT22;667;48.796;9.480;2023-04-03T14:15:05;10.90;44.00
1347;DHT22;667;48.796;9.480;2023-04-03T14:17:33;10.90;44.90
1347;DHT22;667;48.796;9.480;2023-04-03T14:19:59;10.90;45.10
1347;DHT22;667;48.796;9.480;2023-04-03T14:22:29;10.90;44.80
1347;DHT22;667;48.796;9.480;2023-04-03T14:24:55;10.90;44.80
1347;DHT22;667;48.796;9.480;2023-04-03T14:29:53;10.90;44.40
1347;DHT22;667;48.796;9.480;2023-04-03T14:32:21;10.90;44.00
1347;DHT22;667;48.796;9.480;2023-04-03T14:34:47;10.80;43.50
1347;DHT22;667;48.796;9.480;2023-04-03T14:37:16;10.80;43.10
1347;DHT22;667;48.796;9.480;2023-04-03T14:39:43;10.60;43.50
1347;DHT22;667;48.796;9.480;2023-04-03T14:42:13;10.60;43.50
1347;DHT22;667;48.796;9.480;2023-04-03T14:44:39;10.60;43.20
1347;DHT22;667;48.796;9.480;2023-04-03T14:47:12;10.60;43.60
1347;DHT22;667;48.796;9.480;2023-04-03T14:49:39;10.60;44.10
1347;DHT22;667;48.796;9.480;2023-04-03T14:52:04;10.50;44.80
1347;DHT22;667;48.796;9.480;2023-04-03T14:54:30;10.60;45.10
1347;DHT22;667;48.796;9.480;2023-04-03T14:56:58;10.40;44.20
1347;DHT22;667;48.796;9.480;2023-04-03T14:59:25;10.50;44.90
1347;DHT22;667;48.796;9.480;2023-04-03T15:01:50;10.50;45.40
1347;DHT22;667;48.796;9.480;2023-04-03T15:04:19;10.60;45.60
1347;DHT22;667;48.796;9.480;2023-04-03T15:06:47;10.60;45.50
1347;DHT22;667;48.796;9.480;2023-04-03T15:09:26;10.70;45.30
1347;DHT22;667;48.796;9.480;2023-04-03T15:11:54;10.70;44.60
1347;DHT22;667;48.796;9.480;2023-04-03T15:14:20;10.70;45.00
1347;DHT22;667;48.796;9.480;2023-04-03T15:16:46;10.80;45.00
1347;DHT22;667;48.796;9.480;2023-04-03T15:19:12;10.90;44.20
1347;DHT22;667;48.796;9.480;2023-04-03T15:21:38;10.90;43.90
1347;DHT22;667;48.796;9.480;2023-04-03T15:24:04;10.80;43.00
1347;DHT22;667;48.796;9.480;2023-04-03T15:26:30;10.80;43.00
1347;DHT22;667;48.796;9.480;2023-04-03T15:28:56;10.80;43.10
1347;DHT22;667;48.796;9.480;2023-04-03T15:31:22;10.70;43.30
1347;DHT22;667;48.796;9.480;2023-04-03T15:33:47;10.70;43.60
1347;DHT22;667;48.796;9.480;2023-04-03T15:36:13;10.60;43.30
1347;DHT22;667;48.796;9.480;2023-04-03T15:38:39;10.60;43.00
1347;DHT22;667;48.796;9.480;2023-04-03T15:41:04;10.60;42.50
1347;DHT22;667;48.796;9.480;2023-04-03T15:43:30;10.60;42.30
1347;DHT22;667;48.796;9.480;2023-04-03T15:45:58;10.60;42.20
1347;DHT22;667;48.796;9.480;2023-04-03T15:48:24;10.60;42.50
1347;DHT22;667;48.796;9.480;2023-04-03T15:50:50;10.60;42.50
1347;DHT22;667;48.796;9.480;2023-04-03T15:53:16;10.70;42.70
1347;DHT22;667;48.796;9.480;2023-04-03T15:55:42;10.70;43.20
1347;DHT22;667;48.796;9.480;2023-04-03T15:58:08;10.70;43.30
1347;DHT22;667;48.796;9.480;2023-04-03T16:00:35;10.70;43.40
1347;DHT22;667;48.796;9.480;2023-04-03T16:03:07;10.70;42.60
1347;DHT22;667;48.796;9.480;2023-04-03T16:05:35;10.70;42.00
1347;DHT22;667;48.796;9.480;2023-04-03T16:08:01;10.60;41.80
1347;DHT22;667;48.796;9.480;2023-04-03T16:10:27;10.50;41.60
1347;DHT22;667;48.796;9.480;2023-04-03T16:12:53;10.50;42.10
1347;DHT22;667;48.796;9.480;2023-04-03T16:15:19;10.50;42.20
1347;DHT22;667;48.796;9.480;2023-04-03T16:17:44;10.50;42.30
1347;DHT22;667;48.796;9.480;2023-04-03T16:20:11;10.50;42.60
1347;DHT22;667;48.796;9.480;2023-04-03T16:22:38;10.50;42.70
1347;DHT22;667;48.796;9.480;2023-04-03T16:25:06;10.60;43.00
1347;DHT22;667;48.796;9.480;2023-04-03T16:27:32;10.60;42.70
1347;DHT22;667;48.796;9.480;2023-04-03T16:29:57;10.60;42.40
1347;DHT22;667;48.796;9.480;2023-04-03T16:32:25;10.50;41.70
1347;DHT22;667;48.796;9.480;2023-04-03T16:34:51;10.40;41.50
1347;DHT22;667;48.796;9.480;2023-04-03T16:37:17;10.30;41.70
1347;DHT22;667;48.796;9.480;2023-04-03T16:39:43;10.30;42.10
1347;DHT22;667;48.796;9.480;2023-04-03T16:42:09;10.20;41.80
1347;DHT22;667;48.796;9.480;2023-04-03T16:44:35;10.20;41.80
1347;DHT22;667;48.796;9.480;2023-04-03T16:47:01;10.10;42.00
1347;DHT22;667;48.796;9.480;2023-04-03T16:49:27;10.00;41.70
1347;DHT22;667;48.796;9.480;2023-04-03T16:51:58;10.10;42.30
1347;DHT22;667;48.796;9.480;2023-04-03T16:54:23;10.10;42.70
1347;DHT22;667;48.796;9.480;2023-04-03T16:56:49;10.10;42.70
1347;DHT22;667;48.796;9.480;2023-04-03T16:59:14;10.10;42.80
1347;DHT22;667;48.796;9.480;2023-04-03T17:01:40;10.10;43.20
1347;DHT22;667;48.796;9.480;2023-04-03T17:04:06;10.10;43.40
1347;DHT22;667;48.796;9.480;2023-04-03T17:06:32;10.10;43.90
1347;DHT22;667;48.796;9.480;2023-04-03T17:08:57;10.20;44.30
1347;DHT22;667;48.796;9.480;2023-04-03T17:11:23;10.20;44.50
1347;DHT22;667;48.796;9.480;2023-04-03T17:13:48;10.20;43.90
1347;DHT22;667;48.796;9.480;2023-04-03T17:16:15;10.20;43.40
1347;DHT22;667;48.796;9.480;2023-04-03T17:18:41;10.20;43.80
1347;DHT22;667;48.796;9.480;2023-04-03T17:21:07;10.10;43.00
1347;DHT22;667;48.796;9.480;2023-04-03T17:23:34;10.10;43.10
1347;DHT22;667;48.796;9.480;2023-04-03T17:26:01;10.10;42.70
1347;DHT22;667;48.796;9.480;2023-04-03T17:28:27;10.00;42.50
1347;DHT22;667;48.796;9.480;2023-04-03T17:30:57;10.00;43.10
1347;DHT22;667;48.796;9.480;2023-04-03T17:33:24;10.00;43.10
1347;DHT22;667;48.796;9.480;2023-04-03T17:35:51;10.00;43.50
1347;DHT22;667;48.796;9.480;2023-04-03T17:38:17;9.90;44.40
1347;DHT22;667;48.796;9.480;2023-04-03T17:40:43;9.90;44.60
1347;DHT22;667;48.796;9.480;2023-04-03T17:43:10;9.90;44.30
1347;DHT22;667;48.796;9.480;2023-04-03T17:45:37;9.80;43.90
1347;DHT22;667;48.796;9.480;2023-04-03T17:48:02;9.80;44.00
1347;DHT22;667;48.796;9.480;2023-04-03T17:50:28;9.70;44.20
1347;DHT22;667;48.796;9.480;2023-04-03T17:52:54;9.80;44.60
1347;DHT22;667;48.796;9.480;2023-04-03T17:55:20;9.80;44.90
1347;DHT22;667;48.796;9.480;2023-04-03T17:57:46;9.80;44.90
1347;DHT22;667;48.796;9.480;2023-04-03T18:00:11;9.70;45.10
1347;DHT22;667;48.796;9.480;2023-04-03T18:02:37;9.70;45.10
1347;DHT22;667;48.796;9.480;2023-04-03T18:05:03;9.80;45.10
1347;DHT22;667;48.796;9.480;2023-04-03T18:07:29;9.70;45.30
1347;DHT22;667;48.796;9.480;2023-04-03T18:09:55;9.70;45.50
1347;DHT22;667;48.796;9.480;2023-04-03T18:12:22;9.70;45.20
1347;DHT22;667;48.796;9.480;2023-04-03T18:14:48;9.70;45.10
1347;DHT22;667;48.796;9.480;2023-04-03T18:17:14;9.70;45.60
1347;DHT22;667;48.796;9.480;2023-04-03T18:19:40;9.70;46.30
1347;DHT22;667;48.796;9.480;2023-04-03T18:22:11;9.70;46.00